Time;durP1;ratioP1;P1;durP2;ratioP2;P2;SDS_P1;SDS_P2;PMS_P1;PMS_P2;Temp;Humidity;BMP_temperature;BMP_pressure;BME280_temperature;BME280_humidity;BME280_pressure;Samples;Min_cycle;Max_cycle;Signal;HPM_P1;HPM_P2
2020/12/23 00:00:46;;;;;;;0.43;0.43;;;14.50;63.80;;;;;;5052884;28;20240;-66
2020/12/23 00:03:13;;;;;;;0.50;0.50;;;14.50;63.80;;;;;;5052654;28;20208;-64
2020/12/23 00:05:40;;;;;;;0.40;0.40;;;14.50;63.80;;;;;;5057572;28;20233;-65
2020/12/23 00:08:06;;;;;;;0.40;0.40;;;14.40;63.70;;;;;;5057876;28;20208;-65
2020/12/23 00:10:33;;;;;;;0.40;0.40;;;14.40;63.80;;;;;;5056295;28;20241;-65
2020/12/23 00:12:59;;;;;;;0.47;0.47;;;14.40;63.70;;;;;;5054182;28;20202;-65
2020/12/23 00:15:26;;;;;;;0.40;0.40;;;14.40;63.70;;;;;;5059494;28;20230;-65
2020/12/23 00:17:52;;;;;;;0.43;0.40;;;14.40;63.70;;;;;;5057707;28;20213;-66
2020/12/23 00:20:19;;;;;;;0.60;0.50;;;14.40;63.70;;;;;;5059094;28;20275;-66
2020/12/23 00:22:46;;;;;;;0.50;0.40;;;14.40;63.70;;;;;;5058734;28;20210;-66
2020/12/23 00:25:13;;;;;;;0.50;0.50;;;14.30;63.60;;;;;;5056243;28;20274;-66
2020/12/23 00:27:39;;;;;;;0.40;0.40;;;14.30;63.70;;;;;;5058730;28;20201;-65
2020/12/23 00:30:06;;;;;;;0.50;0.50;;;14.30;63.70;;;;;;5058231;28;20225;-65
2020/12/23 00:32:32;;;;;;;0.40;0.40;;;14.30;63.70;;;;;;5058356;28;20206;-66
2020/12/23 00:34:58;;;;;;;0.40;0.40;;;14.30;63.60;;;;;;5060254;28;20206;-66
2020/12/23 00:37:25;;;;;;;0.43;0.43;;;14.30;63.60;;;;;;5059424;28;20321;-66
2020/12/23 00:39:52;;;;;;;0.37;0.37;;;14.30;63.60;;;;;;5058417;28;20712;-65
2020/12/23 00:42:21;;;;;;;0.40;0.40;;;14.30;63.60;;;;;;5056726;28;20220;-66
2020/12/23 00:44:48;;;;;;;0.40;0.40;;;14.30;63.70;;;;;;5058646;28;20236;-65
2020/12/23 00:47:15;;;;;;;0.40;0.40;;;14.30;63.70;;;;;;5056714;28;20270;-65
2020/12/23 00:49:41;;;;;;;0.43;0.40;;;14.30;63.80;;;;;;5059048;28;20596;-65
2020/12/23 00:52:08;;;;;;;0.60;0.50;;;14.40;63.80;;;;;;5051568;28;20276;-65
2020/12/23 00:54:35;;;;;;;0.30;0.30;;;14.40;63.70;;;;;;5059141;28;20201;-65
2020/12/23 00:57:03;;;;;;;0.50;0.40;;;14.40;63.60;;;;;;5056986;28;20705;-66
2020/12/23 00:59:29;;;;;;;0.93;0.50;;;14.40;63.60;;;;;;5055190;28;20198;-66
2020/12/23 01:01:58;;;;;;;0.40;0.40;;;14.50;63.50;;;;;;5056146;28;20235;-66
2020/12/23 01:04:24;;;;;;;0.30;0.30;;;14.50;63.40;;;;;;5055303;28;20233;-65
2020/12/23 01:06:51;;;;;;;0.40;0.40;;;14.50;63.30;;;;;;5057398;28;20244;-66
2020/12/23 01:09:17;;;;;;;0.40;0.40;;;14.50;63.30;;;;;;5057143;28;20197;-65
2020/12/23 01:11:44;;;;;;;0.30;0.30;;;14.60;63.20;;;;;;5056751;28;20228;-65
2020/12/23 01:14:11;;;;;;;0.30;0.30;;;14.60;63.20;;;;;;5059364;28;20624;-66
2020/12/23 01:16:38;;;;;;;0.50;0.30;;;14.60;63.00;;;;;;5055620;28;20205;-64
2020/12/23 01:19:04;;;;;;;0.40;0.40;;;14.60;62.90;;;;;;5058443;28;20631;-64
2020/12/23 01:21:31;;;;;;;0.73;0.40;;;14.60;62.80;;;;;;5056961;28;20276;-64
2020/12/23 01:23:57;;;;;;;0.30;0.30;;;14.60;62.70;;;;;;5057368;28;20202;-65
2020/12/23 01:26:24;;;;;;;0.30;0.30;;;14.70;62.80;;;;;;5057275;28;20209;-65
2020/12/23 01:28:50;;;;;;;0.30;0.30;;;14.70;62.70;;;;;;5058195;28;20209;-66
2020/12/23 01:31:17;;;;;;;0.37;0.37;;;14.70;62.60;;;;;;5056031;28;20217;-64
2020/12/23 01:33:44;;;;;;;0.50;0.50;;;14.70;62.50;;;;;;5058149;28;20224;-64
2020/12/23 01:36:10;;;;;;;0.40;0.40;;;14.70;62.50;;;;;;5058039;28;20203;-64
2020/12/23 01:38:37;;;;;;;0.50;0.50;;;14.70;62.40;;;;;;5058031;28;20201;-65
2020/12/23 01:41:06;;;;;;;1.27;0.47;;;14.70;62.40;;;;;;5058544;28;20233;-64
2020/12/23 01:43:33;;;;;;;0.40;0.40;;;14.70;62.30;;;;;;5063455;28;20205;-65
2020/12/23 01:46:00;;;;;;;0.20;0.20;;;14.70;62.30;;;;;;5066500;28;20225;-65
2020/12/23 01:48:31;;;;;;;0.30;0.30;;;14.70;62.20;;;;;;5063582;28;20202;-65
2020/12/23 01:51:00;;;;;;;0.40;0.40;;;14.70;62.20;;;;;;5057450;28;20635;-65
2020/12/23 01:53:27;;;;;;;0.40;0.40;;;14.60;62.10;;;;;;5054074;28;20209;-65
2020/12/23 01:55:56;;;;;;;0.30;0.30;;;14.60;62.10;;;;;;5045656;28;20451;-65
2020/12/23 01:58:23;;;;;;;0.40;0.40;;;14.60;62.10;;;;;;5055222;28;20205;-65
2020/12/23 02:00:50;;;;;;;0.50;0.50;;;14.60;62.00;;;;;;5056068;28;20229;-66
2020/12/23 02:03:21;;;;;;;0.30;0.30;;;14.50;62.10;;;;;;5055510;28;20227;-65
2020/12/23 02:05:48;;;;;;;0.30;0.30;;;14.50;62.10;;;;;;5052101;28;20321;-65
2020/12/23 02:08:15;;;;;;;0.53;0.40;;;14.50;62.10;;;;;;5054192;28;20225;-65
2020/12/23 02:10:41;;;;;;;0.50;0.40;;;14.50;62.10;;;;;;5056217;28;20267;-65
2020/12/23 02:13:09;;;;;;;0.40;0.40;;;14.50;62.20;;;;;;5057102;28;20209;-65
2020/12/23 02:15:35;;;;;;;0.30;0.30;;;14.50;62.10;;;;;;5055537;28;20283;-65
2020/12/23 02:18:02;;;;;;;0.40;0.40;;;14.50;62.10;;;;;;5055993;28;20576;-65
2020/12/23 02:20:28;;;;;;;0.30;0.30;;;14.40;62.10;;;;;;5056618;28;20236;-65
2020/12/23 02:22:56;;;;;;;0.30;0.30;;;14.40;62.10;;;;;;5055197;28;20611;-65
2020/12/23 02:25:22;;;;;;;0.90;0.37;;;14.40;62.10;;;;;;5054807;28;20231;-64
2020/12/23 02:27:48;;;;;;;0.30;0.30;;;14.40;62.10;;;;;;5056003;28;20620;-64
2020/12/23 02:30:15;;;;;;;0.40;0.40;;;14.40;62.10;;;;;;5053973;28;20922;-65
2020/12/23 02:32:41;;;;;;;0.50;0.30;;;14.40;62.90;;;;;;5055159;28;20214;-64
2020/12/23 02:35:10;;;;;;;0.30;0.30;;;14.30;62.00;;;;;;5056205;28;20198;-66
2020/12/23 02:37:36;;;;;;;0.40;0.40;;;14.30;62.10;;;;;;5056540;28;20213;-65
2020/12/23 02:40:05;;;;;;;0.40;0.40;;;14.30;62.10;;;;;;5055417;28;20228;-65
2020/12/23 02:42:32;;;;;;;0.37;0.37;;;14.30;62.10;;;;;;5055314;28;20205;-65
2020/12/23 02:44:59;;;;;;;0.40;0.40;;;14.30;62.10;;;;;;5055045;28;20231;-64
2020/12/23 02:47:25;;;;;;;0.30;0.30;;;14.30;62.10;;;;;;5056138;28;20260;-64
2020/12/23 02:49:51;;;;;;;0.30;0.30;;;14.20;62.00;;;;;;5054302;28;20222;-65
2020/12/23 02:52:18;;;;;;;0.30;0.30;;;14.20;62.10;;;;;;5053541;28;21133;-65
2020/12/23 02:54:44;;;;;;;0.40;0.40;;;14.20;62.10;;;;;;5052586;28;20201;-65
2020/12/23 02:57:12;;;;;;;0.40;0.40;;;14.20;62.10;;;;;;5053560;28;20267;-64
2020/12/23 02:59:39;;;;;;;0.30;0.30;;;14.20;62.10;;;;;;5049229;28;20682;-66
2020/12/23 03:02:06;;;;;;;0.60;0.30;;;14.20;62.20;;;;;;5050964;28;20248;-64
2020/12/23 03:04:33;;;;;;;0.50;0.50;;;14.20;62.20;;;;;;5060880;28;20304;-65
2020/12/23 03:06:59;;;;;;;0.40;0.40;;;14.20;62.30;;;;;;5067045;28;20213;-65
2020/12/23 03:09:26;;;;;;;0.30;0.30;;;14.20;62.40;;;;;;5063412;28;20259;-64
2020/12/23 03:11:52;;;;;;;0.40;0.40;;;14.20;62.40;;;;;;5054487;28;20228;-65
2020/12/23 03:14:20;;;;;;;0.40;0.40;;;14.30;62.60;;;;;;5054575;28;20201;-65
2020/12/23 03:16:46;;;;;;;0.30;0.30;;;14.30;62.60;;;;;;5053011;28;20704;-65
2020/12/23 03:19:13;;;;;;;0.30;0.30;;;14.40;62.50;;;;;;5053920;28;20214;-65
2020/12/23 03:21:40;;;;;;;0.30;0.30;;;14.40;62.50;;;;;;5054177;28;20743;-65
2020/12/23 03:24:06;;;;;;;0.30;0.30;;;14.50;62.40;;;;;;5054100;28;20698;-64
2020/12/23 03:26:32;;;;;;;0.27;0.27;;;14.50;62.30;;;;;;5056210;28;20210;-64
2020/12/23 03:28:59;;;;;;;0.30;0.30;;;14.60;62.30;;;;;;5052164;28;20271;-65
2020/12/23 03:31:29;;;;;;;0.30;0.30;;;14.70;62.20;;;;;;5049651;28;20686;-65
2020/12/23 03:33:56;;;;;;;0.20;0.20;;;14.70;62.10;;;;;;5054061;28;20213;-64
2020/12/23 03:36:22;;;;;;;0.40;0.40;;;14.80;62.00;;;;;;5052304;28;20368;-65
2020/12/23 03:38:49;;;;;;;0.30;0.30;;;14.80;61.90;;;;;;5052437;28;20205;-65
2020/12/23 03:41:16;;;;;;;0.30;0.30;;;14.80;61.70;;;;;;5050433;28;20244;-65
2020/12/23 03:43:42;;;;;;;0.40;0.40;;;14.90;61.70;;;;;;5053325;28;20210;-65
2020/12/23 03:46:09;;;;;;;0.30;0.30;;;14.90;61.60;;;;;;5053380;28;20251;-65
2020/12/23 03:48:36;;;;;;;0.20;0.20;;;15.00;61.80;;;;;;5050744;28;20275;-66
2020/12/23 03:51:03;;;;;;;0.30;0.30;;;15.00;61.40;;;;;;5052611;28;20593;-66
2020/12/23 03:53:29;;;;;;;0.33;0.33;;;15.10;61.30;;;;;;5053842;28;20610;-65
2020/12/23 03:55:56;;;;;;;0.40;0.40;;;15.00;61.20;;;;;;5050666;28;20208;-66
2020/12/23 03:58:22;;;;;;;0.30;0.30;;;15.10;61.30;;;;;;5055212;28;20212;-67
2020/12/23 04:00:49;;;;;;;0.30;0.30;;;15.10;61.20;;;;;;5053082;28;20602;-65
2020/12/23 04:03:16;;;;;;;0.40;0.40;;;15.10;61.10;;;;;;5052637;28;20296;-66
2020/12/23 04:05:43;;;;;;;0.40;0.40;;;15.10;61.00;;;;;;5051791;28;20270;-66
2020/12/23 04:08:10;;;;;;;0.40;0.40;;;15.10;61.00;;;;;;5055666;28;20258;-65
2020/12/23 04:10:36;;;;;;;0.30;0.30;;;15.20;61.00;;;;;;5051416;28;20274;-65
2020/12/23 04:13:02;;;;;;;0.40;0.40;;;15.20;60.90;;;;;;5054059;28;20224;-65
2020/12/23 04:15:29;;;;;;;0.33;0.33;;;15.20;60.80;;;;;;5054919;28;20201;-65
2020/12/23 04:17:55;;;;;;;0.27;0.27;;;15.20;60.80;;;;;;5053684;28;21007;-65
2020/12/23 04:20:22;;;;;;;0.40;0.40;;;15.20;60.80;;;;;;5051784;28;20291;-65
2020/12/23 04:22:49;;;;;;;0.27;0.27;;;15.30;60.80;;;;;;5053707;28;20232;-65
2020/12/23 04:25:16;;;;;;;0.30;0.30;;;15.30;60.70;;;;;;5054471;28;20717;-68
2020/12/23 04:27:42;;;;;;;0.33;0.33;;;15.30;60.60;;;;;;5054645;28;20219;-65
2020/12/23 04:30:10;;;;;;;0.30;0.30;;;15.30;60.60;;;;;;5052137;28;20229;-64
2020/12/23 04:32:36;;;;;;;0.33;0.33;;;15.30;60.60;;;;;;5055234;28;20673;-64
2020/12/23 04:35:05;;;;;;;0.30;0.30;;;15.40;60.50;;;;;;5052828;28;20205;-64
2020/12/23 04:37:34;;;;;;;0.30;0.30;;;15.40;61.10;;;;;;5055892;28;20213;-65
2020/12/23 04:40:04;;;;;;;0.53;0.43;;;15.40;60.20;;;;;;5052241;28;20274;-64
2020/12/23 04:42:32;;;;;;;0.40;0.40;;;15.40;60.10;;;;;;5054055;28;20311;-64
2020/12/23 04:44:59;;;;;;;0.30;0.30;;;15.40;60.10;;;;;;5052953;28;20704;-65
2020/12/23 04:47:27;;;;;;;0.30;0.30;;;15.40;60.00;;;;;;5053691;28;20218;-64
2020/12/23 04:49:55;;;;;;;0.30;0.30;;;15.40;60.00;;;;;;5050852;28;20773;-65
2020/12/23 04:52:30;;;;;;;0.40;0.40;;;15.40;59.90;;;;;;5054709;28;20206;-64
2020/12/23 04:55:04;;;;;;;0.40;0.40;;;15.40;59.80;;;;;;5054104;28;20665;-64
2020/12/23 04:57:31;;;;;;;0.47;0.30;;;15.40;59.90;;;;;;5059155;28;20209;-65
2020/12/23 04:59:57;;;;;;;0.40;0.40;;;15.40;59.80;;;;;;5054109;28;20229;-65
2020/12/23 05:02:24;;;;;;;0.30;0.30;;;15.40;59.80;;;;;;5048957;28;20532;-65
2020/12/23 05:04:50;;;;;;;0.30;0.30;;;15.40;59.80;;;;;;5055640;28;20232;-65
2020/12/23 05:07:21;;;;;;;0.30;0.30;;;15.40;60.50;;;;;;5056894;28;20204;-64
2020/12/23 05:09:49;;;;;;;0.30;0.30;;;15.50;59.80;;;;;;5056123;28;20616;-65
2020/12/23 05:12:18;;;;;;;0.30;0.30;;;15.50;59.80;;;;;;5056713;28;20217;-65
2020/12/23 05:14:46;;;;;;;0.30;0.30;;;15.50;59.70;;;;;;5059411;28;20193;-64
2020/12/23 05:17:12;;;;;;;0.67;0.40;;;15.50;59.80;;;;;;5057219;28;20197;-64
2020/12/23 05:19:40;;;;;;;0.30;0.30;;;15.50;59.70;;;;;;5052751;28;20697;-64
2020/12/23 05:22:07;;;;;;;0.40;0.40;;;15.50;59.70;;;;;;5055381;28;20200;-65
2020/12/23 05:24:36;;;;;;;0.40;0.40;;;15.50;59.80;;;;;;5058864;28;20334;-66
2020/12/23 05:27:05;;;;;;;0.30;0.30;;;15.60;59.70;;;;;;5054600;28;20683;-64
2020/12/23 05:29:32;;;;;;;0.40;0.40;;;15.60;59.70;;;;;;5055749;28;20236;-65
2020/12/23 05:32:02;;;;;;;0.40;0.40;;;15.60;59.70;;;;;;5056244;28;20240;-64
2020/12/23 05:34:32;;;;;;;1.07;0.40;;;15.60;59.60;;;;;;5055288;28;20208;-64
2020/12/23 05:37:02;;;;;;;0.40;0.40;;;15.70;59.60;;;;;;5051387;28;20205;-64
2020/12/23 05:39:32;;;;;;;0.40;0.40;;;15.70;59.50;;;;;;5051934;28;23465;-66
2020/12/23 05:41:59;;;;;;;0.63;0.40;;;15.70;59.40;;;;;;5053337;28;20233;-65
2020/12/23 05:44:27;;;;;;;0.50;0.50;;;15.80;59.50;;;;;;5053303;28;20205;-65
2020/12/23 05:46:55;;;;;;;0.40;0.40;;;15.80;59.50;;;;;;5052574;28;20198;-65
2020/12/23 05:49:24;;;;;;;0.50;0.30;;;15.80;59.40;;;;;;5055799;28;20200;-64
2020/12/23 05:51:52;;;;;;;0.40;0.40;;;15.80;59.30;;;;;;5054958;28;20221;-64
2020/12/23 05:54:20;;;;;;;0.30;0.30;;;15.80;59.30;;;;;;5054627;28;20205;-64
2020/12/23 05:56:52;;;;;;;0.30;0.30;;;15.90;59.30;;;;;;5056262;28;20841;-65
2020/12/23 05:59:18;;;;;;;0.23;0.23;;;15.90;59.10;;;;;;5054924;28;20208;-65
2020/12/23 06:01:45;;;;;;;0.30;0.30;;;15.90;59.10;;;;;;5054951;28;20233;-67
2020/12/23 06:04:15;;;;;;;0.40;0.40;;;15.90;59.00;;;;;;5056217;28;20213;-67
2020/12/23 06:06:44;;;;;;;0.63;0.50;;;15.90;58.70;;;;;;5059451;28;20278;-67
2020/12/23 06:09:14;;;;;;;0.33;0.33;;;15.90;58.90;;;;;;5056846;28;20208;-67
2020/12/23 06:11:44;;;;;;;0.40;0.40;;;16.00;59.00;;;;;;5053703;28;20234;-68
2020/12/23 06:14:15;;;;;;;0.40;0.40;;;16.00;58.80;;;;;;5055157;28;20289;-67
2020/12/23 06:16:46;;;;;;;0.47;0.47;;;16.00;58.80;;;;;;5054315;28;20227;-67
2020/12/23 06:19:25;;;;;;;0.30;0.30;;;16.00;58.90;;;;;;5057944;28;21511;-66
2020/12/23 06:21:54;;;;;;;0.50;0.50;;;16.00;58.50;;;;;;5054323;28;20236;-64
2020/12/23 06:24:22;;;;;;;0.43;0.43;;;16.00;58.80;;;;;;5056973;28;20212;-65
2020/12/23 06:26:52;;;;;;;0.40;0.40;;;16.00;58.70;;;;;;5054199;28;20426;-65
2020/12/23 06:29:23;;;;;;;0.40;0.40;;;16.10;58.70;;;;;;5057069;28;20205;-67
2020/12/23 06:31:52;;;;;;;0.30;0.30;;;16.10;58.60;;;;;;5051132;28;20233;-67
2020/12/23 06:34:23;;;;;;;0.47;0.37;;;16.10;58.70;;;;;;5053567;28;20213;-67
2020/12/23 06:36:52;;;;;;;0.30;0.30;;;16.10;58.60;;;;;;5056773;28;20571;-66
2020/12/23 06:39:28;;;;;;;0.40;0.40;;;16.10;58.60;;;;;;5056327;28;20273;-66
2020/12/23 06:42:39;;;;;;;0.30;0.30;;;16.10;58.30;;;;;;5053604;28;20229;-67
2020/12/23 06:45:10;;;;;;;0.30;0.30;;;16.10;58.60;;;;;;5054515;28;20229;-66
2020/12/23 06:47:38;;;;;;;0.40;0.40;;;16.10;58.20;;;;;;5055886;28;20205;-66
2020/12/23 06:50:14;;;;;;;0.30;0.30;;;16.10;58.10;;;;;;5068913;28;20217;-66
2020/12/23 06:52:44;;;;;;;0.40;0.40;;;16.10;58.20;;;;;;5069322;28;20201;-69
2020/12/23 06:55:13;;;;;;;0.40;0.40;;;16.10;58.30;;;;;;5062300;28;20197;-67
2020/12/23 06:57:56;;;;;;;0.33;0.33;;;16.10;58.20;;;;;;5049789;28;20213;-66
2020/12/23 07:00:41;;;;;;;0.37;0.37;;;16.20;57.80;;;;;;5050752;28;20223;-66
2020/12/23 07:03:12;;;;;;;0.30;0.30;;;16.20;58.30;;;;;;5053656;28;20603;-66
2020/12/23 07:05:48;;;;;;;0.40;0.40;;;16.20;58.10;;;;;;5052452;28;20274;-66
2020/12/23 07:08:17;;;;;;;0.47;0.40;;;16.20;57.90;;;;;;5053436;28;20566;-66
2020/12/23 07:10:48;;;;;;;0.60;0.60;;;16.30;58.10;;;;;;5050702;28;20221;-66
2020/12/23 07:13:18;;;;;;;0.50;0.50;;;16.30;58.10;;;;;;5051523;28;20209;-66
2020/12/23 07:15:53;;;;;;;0.50;0.40;;;16.30;58.00;;;;;;5052541;28;20685;-66
2020/12/23 07:18:25;;;;;;;0.40;0.40;;;16.40;58.00;;;;;;5052160;28;20205;-66
2020/12/23 07:21:00;;;;;;;0.97;0.47;;;16.40;57.90;;;;;;5051927;28;20243;-66
2020/12/23 07:23:31;;;;;;;0.40;0.40;;;16.40;58.10;;;;;;5052029;28;20209;-66
2020/12/23 07:26:04;;;;;;;0.30;0.30;;;16.40;58.00;;;;;;5052689;28;20236;-67
2020/12/23 07:28:37;;;;;;;0.40;0.40;;;16.40;57.90;;;;;;5050282;28;20208;-65
2020/12/23 07:31:04;;;;;;;0.40;0.40;;;16.40;57.90;;;;;;5052158;28;20229;-66
2020/12/23 07:33:33;;;;;;;0.60;0.60;;;16.40;57.90;;;;;;5055645;28;20263;-66
2020/12/23 07:36:02;;;;;;;0.50;0.50;;;16.50;58.00;;;;;;5051208;28;20284;-66
2020/12/23 07:38:31;;;;;;;0.50;0.47;;;16.50;57.90;;;;;;5055892;28;20618;-65
2020/12/23 07:40:59;;;;;;;1.17;0.80;;;16.50;57.90;;;;;;5054383;28;20287;-66
2020/12/23 07:43:26;;;;;;;0.70;0.70;;;16.50;57.90;;;;;;5053646;28;20292;-66
2020/12/23 07:45:54;;;;;;;0.40;0.40;;;16.50;57.80;;;;;;5051763;28;20221;-66
2020/12/23 07:48:22;;;;;;;0.93;0.77;;;16.50;57.80;;;;;;5050521;28;20271;-66
2020/12/23 07:50:51;;;;;;;0.60;0.60;;;16.50;57.70;;;;;;5051586;28;20222;-65
2020/12/23 07:53:21;;;;;;;0.70;0.70;;;16.50;57.70;;;;;;5052797;28;20213;-67
2020/12/23 07:55:50;;;;;;;0.90;0.60;;;16.50;57.70;;;;;;5055833;28;20205;-67
2020/12/23 07:58:16;;;;;;;0.80;0.60;;;16.50;57.70;;;;;;5053499;28;20202;-66
2020/12/23 08:00:44;;;;;;;0.70;0.70;;;16.50;57.80;;;;;;5050279;28;20224;-67
2020/12/23 08:03:12;;;;;;;0.60;0.50;;;16.50;57.80;;;;;;5054255;28;20878;-65
2020/12/23 08:05:41;;;;;;;0.80;0.80;;;16.50;57.90;;;;;;5055120;28;20236;-66
2020/12/23 08:08:08;;;;;;;1.70;0.80;;;16.50;57.90;;;;;;5052206;28;20755;-66
2020/12/23 08:10:36;;;;;;;1.00;0.70;;;16.50;57.80;;;;;;5050283;28;20230;-66
2020/12/23 08:13:05;;;;;;;0.70;0.70;;;16.50;57.80;;;;;;5053499;28;23528;-66
2020/12/23 08:15:32;;;;;;;0.90;0.80;;;16.40;57.70;;;;;;5054004;28;20324;-65
2020/12/23 08:18:01;;;;;;;0.77;0.77;;;16.40;57.60;;;;;;5049184;28;20211;-66
2020/12/23 08:20:28;;;;;;;0.83;0.73;;;16.40;57.60;;;;;;5053140;28;20725;-66
2020/12/23 08:22:55;;;;;;;0.70;0.70;;;16.40;57.60;;;;;;5054317;28;20213;-66
2020/12/23 08:25:23;;;;;;;0.73;0.73;;;16.40;57.70;;;;;;5055496;28;20233;-66
2020/12/23 08:27:52;;;;;;;0.70;0.70;;;16.40;57.70;;;;;;5059452;28;20259;-68
2020/12/23 08:30:22;;;;;;;0.97;0.70;;;16.40;57.70;;;;;;5055031;28;20229;-67
2020/12/23 08:32:56;;;;;;;0.60;0.60;;;16.50;57.80;;;;;;5057301;28;20212;-65
2020/12/23 08:35:28;;;;;;;0.93;0.80;;;16.50;57.70;;;;;;5059807;28;20689;-65
2020/12/23 08:37:55;;;;;;;0.83;0.83;;;16.50;57.60;;;;;;5061502;28;20209;-67
2020/12/23 08:40:22;;;;;;;0.50;0.50;;;16.50;57.70;;;;;;5065750;28;20358;-67
2020/12/23 08:42:55;;;;;;;0.77;0.73;;;16.50;57.70;;;;;;5061478;28;20210;-67
2020/12/23 08:45:24;;;;;;;1.00;0.90;;;16.50;57.50;;;;;;5068237;28;20246;-66
2020/12/23 08:47:52;;;;;;;1.43;0.80;;;16.60;57.70;;;;;;5068221;28;20210;-66
2020/12/23 08:50:20;;;;;;;1.50;0.87;;;16.60;57.80;;;;;;5060838;28;20293;-66
2020/12/23 08:52:49;;;;;;;1.10;0.90;;;16.50;57.80;;;;;;5057449;28;20220;-67
2020/12/23 08:55:18;;;;;;;0.70;0.60;;;16.60;57.90;;;;;;5060089;28;20197;-67
2020/12/23 08:57:45;;;;;;;1.03;0.90;;;16.60;57.80;;;;;;5060750;28;20212;-66
2020/12/23 09:00:21;;;;;;;1.30;1.07;;;16.50;57.90;;;;;;5053484;28;20233;-64
2020/12/23 09:02:49;;;;;;;1.10;1.00;;;16.50;57.70;;;;;;5056671;28;20292;-66
2020/12/23 09:05:23;;;;;;;1.30;1.00;;;16.50;57.80;;;;;;5059462;28;20229;-65
2020/12/23 09:08:07;;;;;;;1.70;1.10;;;16.50;57.80;;;;;;5057194;28;20222;-64
2020/12/23 09:10:34;;;;;;;1.57;1.23;;;16.50;57.70;;;;;;5053315;28;20251;-65
2020/12/23 09:13:06;;;;;;;1.20;0.90;;;16.50;58.20;;;;;;5056619;28;20210;-66
2020/12/23 09:15:34;;;;;;;1.27;0.90;;;16.50;58.20;;;;;;5059359;28;20250;-64
2020/12/23 09:18:09;;;;;;;1.60;1.00;;;16.50;58.20;;;;;;5055741;28;20294;-64
2020/12/23 09:20:37;;;;;;;1.57;1.10;;;16.50;58.00;;;;;;5058156;28;20629;-65
2020/12/23 09:23:05;;;;;;;1.10;1.00;;;16.60;58.10;;;;;;5057996;28;20212;-66
2020/12/23 09:25:32;;;;;;;1.30;0.90;;;16.60;58.70;;;;;;5060916;28;20217;-64
2020/12/23 09:28:08;;;;;;;0.83;0.80;;;16.60;58.00;;;;;;5057390;28;20213;-64
2020/12/23 09:30:39;;;;;;;1.03;0.93;;;16.60;57.80;;;;;;5058435;28;20316;-65
2020/12/23 09:33:08;;;;;;;0.97;0.83;;;16.70;57.80;;;;;;5059408;28;20836;-65
2020/12/23 09:35:36;;;;;;;1.00;0.77;;;16.70;57.80;;;;;;5058884;28;20334;-65
2020/12/23 09:38:14;;;;;;;1.17;0.90;;;16.70;57.70;;;;;;5057341;28;20209;-65
2020/12/23 09:40:44;;;;;;;0.57;0.57;;;16.70;57.60;;;;;;5051878;28;20867;-66
2020/12/23 09:43:13;;;;;;;1.20;0.80;;;16.80;57.50;;;;;;5055402;28;20213;-64
2020/12/23 09:45:41;;;;;;;1.37;0.70;;;16.80;57.50;;;;;;5056705;28;20324;-66
2020/12/23 09:48:08;;;;;;;0.67;0.67;;;16.80;57.50;;;;;;5058502;28;20208;-66
2020/12/23 09:50:35;;;;;;;0.80;0.60;;;16.90;57.60;;;;;;5058896;28;20737;-66
2020/12/23 09:53:02;;;;;;;1.33;0.90;;;16.80;57.50;;;;;;5059197;28;20206;-66
2020/12/23 09:55:29;;;;;;;2.07;0.73;;;16.90;57.70;;;;;;5057440;28;20214;-65
2020/12/23 09:57:58;;;;;;;1.30;0.90;;;16.90;57.50;;;;;;5055241;28;20210;-66
2020/12/23 10:00:27;;;;;;;0.93;0.60;;;16.90;57.50;;;;;;5055649;28;20217;-66
2020/12/23 10:02:54;;;;;;;0.97;0.70;;;16.80;57.70;;;;;;5059363;28;20292;-65
2020/12/23 10:05:21;;;;;;;1.30;0.70;;;16.90;58.00;;;;;;5058305;28;20221;-67
2020/12/23 10:07:47;;;;;;;0.80;0.73;;;16.80;58.00;;;;;;5057290;28;20229;-64
2020/12/23 10:10:14;;;;;;;1.37;0.93;;;16.80;58.00;;;;;;5056496;28;20221;-64
2020/12/23 10:12:40;;;;;;;0.60;0.60;;;16.80;58.20;;;;;;5054030;28;20302;-68
2020/12/23 10:15:08;;;;;;;0.90;0.80;;;16.70;58.20;;;;;;5053655;28;20961;-65
2020/12/23 10:17:35;;;;;;;0.67;0.60;;;16.70;58.20;;;;;;5056544;28;20224;-65
2020/12/23 10:20:02;;;;;;;0.93;0.77;;;16.70;58.40;;;;;;5055517;28;20280;-65
2020/12/23 10:22:29;;;;;;;1.30;0.80;;;16.70;58.50;;;;;;5060210;28;20337;-66
2020/12/23 10:24:55;;;;;;;0.93;0.57;;;16.70;58.50;;;;;;5055749;28;20251;-65
2020/12/23 10:27:22;;;;;;;0.80;0.80;;;16.70;58.50;;;;;;5057972;28;20235;-65
2020/12/23 10:29:48;;;;;;;0.50;0.50;;;16.80;58.70;;;;;;5057908;28;20210;-65
2020/12/23 10:32:15;;;;;;;0.57;0.50;;;16.80;58.60;;;;;;5055619;28;20216;-65
2020/12/23 10:34:42;;;;;;;0.50;0.50;;;16.80;58.60;;;;;;5060553;28;20205;-65
2020/12/23 10:37:09;;;;;;;0.63;0.63;;;17.00;58.60;;;;;;5069526;28;20240;-64
2020/12/23 10:39:36;;;;;;;0.60;0.60;;;17.00;58.50;;;;;;5066142;28;20212;-64
2020/12/23 10:42:02;;;;;;;0.60;0.60;;;17.00;58.50;;;;;;5053932;28;20313;-65
2020/12/23 10:44:29;;;;;;;1.83;1.57;;;17.10;58.50;;;;;;5052616;28;20218;-65
2020/12/23 10:46:56;;;;;;;1.97;1.70;;;17.20;58.40;;;;;;5053949;28;20221;-65
2020/12/23 10:49:24;;;;;;;2.00;1.80;;;17.20;58.20;;;;;;5054382;28;20205;-64
2020/12/23 10:51:55;;;;;;;4.07;1.20;;;17.30;58.10;;;;;;5051319;28;20237;-65
2020/12/23 10:54:23;;;;;;;1.10;0.80;;;17.30;58.10;;;;;;5056288;28;20212;-64
2020/12/23 10:56:50;;;;;;;1.10;1.00;;;17.30;57.90;;;;;;5057038;28;20301;-64
2020/12/23 10:59:17;;;;;;;0.80;0.80;;;17.30;57.80;;;;;;5053028;28;20247;-64
2020/12/23 11:01:44;;;;;;;1.03;0.90;;;17.30;57.70;;;;;;5054367;28;20217;-64
2020/12/23 11:04:11;;;;;;;1.00;0.90;;;17.30;57.80;;;;;;5053113;28;20213;-64
2020/12/23 11:06:38;;;;;;;1.33;1.00;;;17.40;57.80;;;;;;5055154;28;20244;-64
2020/12/23 11:09:05;;;;;;;0.90;0.73;;;17.40;57.80;;;;;;5057307;28;20209;-65
2020/12/23 11:11:32;;;;;;;0.60;0.60;;;17.40;57.90;;;;;;5055453;28;20267;-65
2020/12/23 11:13:59;;;;;;;1.40;1.00;;;17.50;58.20;;;;;;5054510;28;20659;-65
2020/12/23 11:16:27;;;;;;;1.10;0.93;;;17.50;57.80;;;;;;5049123;28;20297;-66
2020/12/23 11:18:54;;;;;;;0.87;0.80;;;17.50;57.70;;;;;;5052166;28;20351;-65
2020/12/23 11:21:20;;;;;;;1.83;1.07;;;17.50;57.70;;;;;;5057316;28;20241;-65
2020/12/23 11:23:47;;;;;;;1.13;1.03;;;17.60;57.60;;;;;;5054987;28;20209;-65
2020/12/23 11:26:18;;;;;;;1.80;0.90;;;17.60;57.50;;;;;;5055359;28;20566;-65
2020/12/23 11:28:46;;;;;;;1.07;1.00;;;17.60;57.50;;;;;;5056478;28;20206;-64
2020/12/23 11:31:14;;;;;;;2.83;1.60;;;17.60;57.60;;;;;;5054928;28;20240;-63
2020/12/23 11:33:40;;;;;;;1.50;1.33;;;17.70;57.70;;;;;;5052473;28;20205;-66
2020/12/23 11:36:07;;;;;;;1.33;1.23;;;17.70;57.60;;;;;;5055626;28;20349;-64
2020/12/23 11:38:34;;;;;;;2.43;1.30;;;17.70;57.60;;;;;;5056574;28;20202;-65
2020/12/23 11:41:01;;;;;;;1.10;1.00;;;17.70;57.50;;;;;;5055247;28;20279;-65
2020/12/23 11:43:28;;;;;;;1.07;0.97;;;17.80;57.50;;;;;;5057876;28;20209;-64
2020/12/23 11:45:55;;;;;;;1.20;1.10;;;17.80;57.50;;;;;;5056324;28;20698;-64
2020/12/23 11:48:22;;;;;;;2.47;1.23;;;17.90;57.50;;;;;;5057975;28;20213;-65
2020/12/23 11:50:48;;;;;;;1.20;1.10;;;17.90;57.40;;;;;;5049801;28;20236;-65
2020/12/23 11:53:15;;;;;;;3.10;1.30;;;18.00;57.50;;;;;;5053926;28;20243;-65
2020/12/23 11:55:41;;;;;;;1.57;0.97;;;18.10;57.30;;;;;;5055166;28;20721;-64
2020/12/23 11:58:08;;;;;;;1.00;0.90;;;18.20;57.20;;;;;;5052779;28;20685;-66
2020/12/23 12:00:34;;;;;;;1.10;0.90;;;18.20;57.00;;;;;;5055991;28;20573;-64
2020/12/23 12:03:02;;;;;;;1.47;1.10;;;18.30;57.00;;;;;;5054514;28;20214;-65
2020/12/23 12:05:28;;;;;;;1.93;1.27;;;18.40;56.80;;;;;;5058632;28;20535;-64
2020/12/23 12:07:54;;;;;;;1.50;1.20;;;18.40;56.80;;;;;;5056504;28;20232;-63
2020/12/23 12:10:21;;;;;;;1.37;1.07;;;18.50;56.80;;;;;;5059063;28;20236;-64
2020/12/23 12:12:47;;;;;;;1.23;0.87;;;18.60;56.80;;;;;;5059133;28;20235;-64
2020/12/23 12:15:14;;;;;;;1.87;0.80;;;18.60;56.70;;;;;;5056802;28;20603;-65
2020/12/23 12:17:40;;;;;;;0.80;0.70;;;18.70;56.70;;;;;;5056795;28;20278;-65
2020/12/23 12:20:08;;;;;;;1.77;0.90;;;18.70;56.60;;;;;;5057239;28;20321;-65
2020/12/23 12:22:34;;;;;;;0.83;0.73;;;18.90;57.20;;;;;;5057379;28;22225;-69
2020/12/23 12:25:01;;;;;;;1.57;0.90;;;18.90;56.50;;;;;;5058759;28;20218;-65
2020/12/23 12:27:28;;;;;;;1.10;0.90;;;18.90;56.40;;;;;;5055339;28;20583;-63
2020/12/23 12:29:54;;;;;;;1.10;0.70;;;19.00;56.30;;;;;;5058521;28;20210;-64
2020/12/23 12:32:21;;;;;;;1.53;0.70;;;19.10;56.30;;;;;;5057950;28;20205;-64
2020/12/23 12:34:47;;;;;;;0.93;0.80;;;19.10;56.20;;;;;;5058820;28;20707;-64
2020/12/23 12:37:15;;;;;;;0.93;0.83;;;19.20;56.00;;;;;;5057845;28;20219;-64
2020/12/23 12:39:42;;;;;;;1.37;0.70;;;19.20;55.80;;;;;;5057699;28;20234;-64
2020/12/23 12:42:08;;;;;;;4.23;0.73;;;19.30;55.80;;;;;;5060594;28;20205;-65
2020/12/23 12:44:35;;;;;;;1.17;0.80;;;19.30;55.70;;;;;;5059604;28;20275;-64
2020/12/23 12:47:01;;;;;;;1.83;0.60;;;19.30;55.70;;;;;;5057900;28;20236;-64
2020/12/23 12:49:28;;;;;;;0.87;0.80;;;19.40;55.70;;;;;;5056412;28;20205;-64
2020/12/23 12:51:56;;;;;;;2.20;0.80;;;19.40;55.70;;;;;;5057927;28;20229;-64